Huntsville (HSV/KHSV)

Map

Information

Location
Huntsville, AL
Local Time
00:40 / 12:40 am
GMT Time
05:40 / 5:40 am
Gates
Unassigned
No FAA reported delays
METAR KHSV 190453Z 11004KT 10SM CLR 11/10 A3025 RMK AO2 SLP241 T01060100 $
TAF KHSV 182320Z 1900/1924 VRB02KT P6SM FEW250 FM191500 10004KT P6SM SKC